createdAt,value
2023-02-19T00:02:46.839Z,8.36
2023-02-19T00:06:20.860Z,8.40
2023-02-19T00:09:40.286Z,8.34
2023-02-19T00:13:11.863Z,8.36
2023-02-19T00:17:17.834Z,8.41
2023-02-19T00:20:50.765Z,8.47
2023-02-19T00:24:20.779Z,8.47
2023-02-19T00:26:49.152Z,8.50
2023-02-19T00:29:21.584Z,8.53
2023-02-19T00:31:49.653Z,8.57
2023-02-19T00:34:17.677Z,8.58
2023-02-19T00:36:45.629Z,8.58
2023-02-19T00:39:16.251Z,8.58
2023-02-19T00:41:46.315Z,8.59
2023-02-19T00:44:16.526Z,8.61
2023-02-19T00:46:47.503Z,8.62
2023-02-19T00:49:20.027Z,8.61
2023-02-19T00:51:48.309Z,8.59
2023-02-19T00:54:16.679Z,8.57
2023-02-19T00:56:44.492Z,8.55
2023-02-19T00:59:12.777Z,8.52
2023-02-19T01:02:20.803Z,8.47
2023-02-19T01:05:55.178Z,8.39
2023-02-19T01:09:47.790Z,8.35
2023-02-19T01:13:14.186Z,8.33
2023-02-19T01:17:02.331Z,8.31
2023-02-19T01:20:31.837Z,8.27
2023-02-19T01:24:02.086Z,8.23
2023-02-19T01:27:58.818Z,8.19
2023-02-19T01:32:01.956Z,8.19
2023-02-19T01:35:49.147Z,8.19
2023-02-19T01:43:02.923Z,8.04
2023-02-19T01:46:34.116Z,7.94
2023-02-19T01:52:55.951Z,7.87
2023-02-19T01:55:24.361Z,7.85
2023-02-19T01:57:55.618Z,7.85
2023-02-19T02:00:24.970Z,7.85
2023-02-19T02:02:58.611Z,7.82
2023-02-19T02:05:45.973Z,7.79
2023-02-19T02:08:31.426Z,7.76
2023-02-19T02:10:59.716Z,7.75
2023-02-19T02:13:28.540Z,7.71
2023-02-19T02:16:10.768Z,7.70
2023-02-19T02:19:01.921Z,7.66
2023-02-19T02:21:59.221Z,7.63
2023-02-19T02:24:53.271Z,7.62
2023-02-19T02:27:44.481Z,7.57
2023-02-19T02:30:30.181Z,7.52
2023-02-19T02:33:13.122Z,7.45
2023-02-19T02:35:56.100Z,7.42
2023-02-19T02:38:29.102Z,7.38
2023-02-19T02:40:57.792Z,7.36
2023-02-19T02:43:25.843Z,7.35
2023-02-19T02:45:55.351Z,7.31
2023-02-19T02:48:35.211Z,7.27
2023-02-19T02:51:20.329Z,7.23
2023-02-19T02:54:14.206Z,7.18
2023-02-19T02:56:44.349Z,7.10
2023-02-19T02:59:14.965Z,7.05
2023-02-19T03:02:04.920Z,6.98
2023-02-19T03:05:24.967Z,6.97
2023-02-19T03:08:05.324Z,6.96
2023-02-19T03:10:41.188Z,6.96
2023-02-19T03:13:35.527Z,6.95
2023-02-19T03:16:25.614Z,6.95
2023-02-19T03:19:15.839Z,6.96
2023-02-19T03:21:47.085Z,6.97
2023-02-19T03:24:36.134Z,6.99
2023-02-19T03:27:04.980Z,7.02
2023-02-19T03:29:39.902Z,7.02
2023-02-19T03:32:14.867Z,7.03
2023-02-19T03:34:53.047Z,7.05
2023-02-19T03:37:28.417Z,7.09
2023-02-19T03:39:57.757Z,7.11
2023-02-19T03:42:43.450Z,7.10
2023-02-19T03:45:25.640Z,7.05
2023-02-19T03:48:18.806Z,6.96
2023-02-19T03:51:02.121Z,6.87
2023-02-19T03:53:37.937Z,6.78
2023-02-19T03:56:11.706Z,6.66
2023-02-19T03:59:02.257Z,6.57
2023-02-19T04:01:47.157Z,6.48
2023-02-19T04:04:30.392Z,6.42
2023-02-19T04:06:59.114Z,6.39
2023-02-19T04:09:38.601Z,6.37
2023-02-19T04:12:16.528Z,6.35
2023-02-19T04:15:04.301Z,6.32
2023-02-19T04:17:53.475Z,6.26
2023-02-19T04:20:26.174Z,6.20
2023-02-19T04:22:56.469Z,6.13
2023-02-19T04:25:29.475Z,6.06
2023-02-19T04:28:00.099Z,5.99
2023-02-19T04:30:50.200Z,5.92
2023-02-19T04:33:18.911Z,5.93
2023-02-19T04:35:46.966Z,5.99
2023-02-19T04:38:18.668Z,6.03
2023-02-19T04:40:48.985Z,6.10
2023-02-19T04:43:37.257Z,6.16
2023-02-19T04:46:06.310Z,6.18
2023-02-19T04:48:35.942Z,6.18
2023-02-19T04:51:08.179Z,6.16
2023-02-19T04:53:39.834Z,6.12
2023-02-19T04:56:19.030Z,6.05
2023-02-19T04:59:13.968Z,5.99
2023-02-19T05:01:43.515Z,5.94
2023-02-19T05:04:11.955Z,5.93
2023-02-19T05:06:43.631Z,5.96
2023-02-19T05:09:13.388Z,6.01
2023-02-19T05:11:42.192Z,6.08
2023-02-19T05:14:10.178Z,6.18
2023-02-19T05:16:38.825Z,6.31
2023-02-19T05:19:07.110Z,6.44
2023-02-19T05:21:35.430Z,6.54
2023-02-19T05:24:03.746Z,6.61
2023-02-19T05:26:45.355Z,6.67
2023-02-19T05:29:14.389Z,6.73
2023-02-19T05:31:44.421Z,6.78
2023-02-19T05:34:14.056Z,6.81
2023-02-19T05:36:42.806Z,6.84
2023-02-19T05:39:12.754Z,6.86
2023-02-19T05:41:41.416Z,6.88
2023-02-19T05:44:11.524Z,6.89
2023-02-19T05:46:41.062Z,6.91
2023-02-19T05:49:09.461Z,6.91
2023-02-19T05:51:40.661Z,6.90
2023-02-19T05:54:28.732Z,6.90
2023-02-19T05:56:59.345Z,6.91
2023-02-19T05:59:27.814Z,6.93
2023-02-19T06:01:59.822Z,6.95
2023-02-19T06:04:29.180Z,6.96
2023-02-19T06:06:58.645Z,6.97
2023-02-19T06:09:27.203Z,6.99
2023-02-19T06:12:16.051Z,7.01
2023-02-19T06:14:45.944Z,7.08
2023-02-19T06:17:15.847Z,7.14
2023-02-19T06:19:44.724Z,7.19
2023-02-19T06:22:16.153Z,7.21
2023-02-19T06:24:47.833Z,7.23
2023-02-19T06:27:17.400Z,7.25
2023-02-19T06:29:46.252Z,7.25
2023-02-19T06:32:16.735Z,7.25
2023-02-19T06:34:51.806Z,7.25
2023-02-19T06:37:20.695Z,7.27
2023-02-19T06:39:49.189Z,7.28
2023-02-19T06:42:19.250Z,7.30
2023-02-19T06:44:48.908Z,7.32
2023-02-19T06:47:20.498Z,7.34
2023-02-19T06:50:08.624Z,7.35
2023-02-19T06:52:37.755Z,7.37
2023-02-19T06:55:09.593Z,7.39
2023-02-19T06:57:38.288Z,7.40
2023-02-19T07:00:18.772Z,7.42
2023-02-19T07:02:58.210Z,7.45
2023-02-19T07:05:26.960Z,7.47
2023-02-19T07:07:55.315Z,7.50
2023-02-19T07:10:23.320Z,7.52
2023-02-19T07:12:51.262Z,7.55
2023-02-19T07:15:20.108Z,7.57
2023-02-19T07:17:51.729Z,7.60
2023-02-19T07:20:27.116Z,7.63
2023-02-19T07:22:57.573Z,7.66
2023-02-19T07:25:45.389Z,7.70
2023-02-19T07:28:14.901Z,7.74
2023-02-19T07:30:44.682Z,7.80
2023-02-19T07:33:45.846Z,7.86
2023-02-19T07:37:21.808Z,7.94
2023-02-19T07:41:14.230Z,8.05
2023-02-19T07:45:07.856Z,8.14
2023-02-19T07:48:59.802Z,8.22
2023-02-19T07:52:54.004Z,8.32
2023-02-19T07:59:59.850Z,8.54
2023-02-19T08:03:43.732Z,8.70
2023-02-19T08:07:39.062Z,8.86
2023-02-19T08:11:25.338Z,9.00
2023-02-19T08:14:44.126Z,9.14
2023-02-19T08:18:11.761Z,9.23
2023-02-19T08:21:59.978Z,9.34
2023-02-19T08:25:18.957Z,9.36
2023-02-19T08:29:03.903Z,9.27
2023-02-19T08:32:37.793Z,9.24
2023-02-19T08:36:30.783Z,9.25
2023-02-19T08:40:37.797Z,9.35
2023-02-19T08:44:09.811Z,9.51
2023-02-19T08:48:03.978Z,9.62
2023-02-19T08:51:35.767Z,9.63
2023-02-19T08:55:27.798Z,9.78
2023-02-19T08:59:08.892Z,9.96
2023-02-19T09:02:46.265Z,10.14
2023-02-19T09:06:40.088Z,10.29
2023-02-19T09:14:04.738Z,10.51
2023-02-19T09:21:32.954Z,10.84
2023-02-19T09:25:04.921Z,10.94
2023-02-19T09:28:38.148Z,11.13
2023-02-19T09:32:07.846Z,11.32
2023-02-19T09:35:52.852Z,11.52
2023-02-19T09:39:21.746Z,11.79
2023-02-19T09:41:58.045Z,12.03
2023-02-19T09:44:30.982Z,12.23
2023-02-19T09:47:01.303Z,12.40
2023-02-19T09:49:34.119Z,12.50
2023-02-19T09:52:23.028Z,12.54
2023-02-19T09:54:52.218Z,12.48
2023-02-19T09:57:21.678Z,12.55
2023-02-19T09:59:54.205Z,12.56
2023-02-19T10:02:25.673Z,12.50
2023-02-19T10:04:54.183Z,12.51
2023-02-19T10:07:25.645Z,12.45
2023-02-19T10:10:01.129Z,12.40
2023-02-19T10:12:31.459Z,12.35
2023-02-19T10:15:09.637Z,12.36
2023-02-19T10:17:37.683Z,12.33
2023-02-19T10:20:06.390Z,12.22
2023-02-19T10:22:38.051Z,12.24
2023-02-19T10:25:06.663Z,12.18
2023-02-19T10:27:34.604Z,12.15
2023-02-19T10:30:02.752Z,12.15
2023-02-19T10:32:30.719Z,12.22
2023-02-19T10:35:16.437Z,12.25
2023-02-19T10:37:49.334Z,12.20
2023-02-19T10:40:21.890Z,12.21
2023-02-19T10:42:53.796Z,12.25
2023-02-19T10:45:30.249Z,12.29
2023-02-19T10:47:58.746Z,12.32
2023-02-19T10:50:32.183Z,12.30
2023-02-19T10:53:02.101Z,12.46
2023-02-19T10:55:36.660Z,12.59
2023-02-19T10:58:24.155Z,12.68
2023-02-19T11:01:13.408Z,12.84
2023-02-19T11:03:41.776Z,13.02
2023-02-19T11:06:12.092Z,13.12
2023-02-19T11:08:50.302Z,13.01
2023-02-19T11:11:38.748Z,12.86
2023-02-19T11:14:18.949Z,12.87
2023-02-19T11:16:52.027Z,12.63
2023-02-19T11:19:28.705Z,12.55
2023-02-19T11:21:56.756Z,12.44
2023-02-19T11:24:34.040Z,12.27
2023-02-19T11:27:15.259Z,12.13
2023-02-19T11:29:43.290Z,12.14
2023-02-19T11:32:29.735Z,12.14
2023-02-19T11:35:25.222Z,12.28
2023-02-19T11:38:01.800Z,12.38
2023-02-19T11:40:44.739Z,12.48
2023-02-19T11:43:38.729Z,12.47
2023-02-19T11:46:17.733Z,12.68
2023-02-19T11:49:02.601Z,12.81
2023-02-19T11:51:54.006Z,12.85
2023-02-19T11:54:41.766Z,12.70
2023-02-19T11:57:39.579Z,12.62
2023-02-19T12:00:24.698Z,12.29
2023-02-19T12:03:18.426Z,12.22
2023-02-19T12:06:20.075Z,12.15
2023-02-19T12:09:12.119Z,12.18
2023-02-19T12:12:10.512Z,12.25
2023-02-19T12:15:07.991Z,12.32
2023-02-19T12:18:10.858Z,12.38
2023-02-19T12:20:58.808Z,12.37
2023-02-19T12:24:01.154Z,12.29
2023-02-19T12:27:02.041Z,12.15
2023-02-19T12:30:01.612Z,11.98
2023-02-19T12:32:50.272Z,11.89
2023-02-19T12:35:44.884Z,11.85
2023-02-19T12:38:25.982Z,11.91
2023-02-19T12:41:13.056Z,12.00
2023-02-19T12:43:44.897Z,12.05
2023-02-19T12:46:20.641Z,11.97
2023-02-19T12:48:58.937Z,11.82
2023-02-19T12:51:37.101Z,11.68
2023-02-19T12:54:29.400Z,11.54
2023-02-19T12:57:05.659Z,11.42
2023-02-19T12:59:52.108Z,11.28
2023-02-19T13:02:33.394Z,11.14
2023-02-19T13:05:11.261Z,10.92
2023-02-19T13:07:49.860Z,10.70
2023-02-19T13:10:31.418Z,10.50
2023-02-19T13:13:05.596Z,10.29
2023-02-19T13:15:39.334Z,10.16
2023-02-19T13:18:19.517Z,10.02
2023-02-19T13:20:48.856Z,9.90
2023-02-19T13:23:44.848Z,9.79
2023-02-19T13:26:43.171Z,9.64
2023-02-19T13:29:33.052Z,9.59
2023-02-19T13:32:22.751Z,9.46
2023-02-19T13:35:16.823Z,9.28
2023-02-19T13:37:45.282Z,9.14
2023-02-19T13:40:36.683Z,9.07
2023-02-19T13:43:14.027Z,9.03
2023-02-19T13:45:46.036Z,9.02
2023-02-19T13:48:28.185Z,9.09
2023-02-19T13:51:35.846Z,9.16
2023-02-19T13:54:14.647Z,9.16
2023-02-19T13:56:42.781Z,9.10
2023-02-19T13:59:25.879Z,9.07
2023-02-19T14:02:26.703Z,9.00
2023-02-19T14:05:00.150Z,8.93
2023-02-19T14:07:55.523Z,8.87
2023-02-19T14:10:50.752Z,8.84
2023-02-19T14:13:55.392Z,8.84
2023-02-19T14:17:05.550Z,8.93
2023-02-19T14:19:50.481Z,9.87
2023-02-19T14:22:52.602Z,10.91
2023-02-19T14:25:29.457Z,12.10
2023-02-19T14:28:16.864Z,12.70
2023-02-19T14:31:03.448Z,13.35
2023-02-19T14:33:34.841Z,13.80
2023-02-19T14:36:14.059Z,13.61
2023-02-19T14:38:50.587Z,12.96
2023-02-19T14:41:19.001Z,12.27
2023-02-19T14:43:50.735Z,11.87
2023-02-19T14:46:31.165Z,11.51
2023-02-19T14:49:07.881Z,11.19
2023-02-19T14:51:41.411Z,10.94
2023-02-19T14:54:24.007Z,10.77
2023-02-19T14:56:54.179Z,10.62
2023-02-19T14:59:27.078Z,10.51
2023-02-19T15:01:57.322Z,10.37
2023-02-19T15:04:28.924Z,10.32
2023-02-19T15:07:00.448Z,10.27
2023-02-19T15:09:33.310Z,10.23
2023-02-19T15:12:02.739Z,10.20
2023-02-19T15:14:32.293Z,10.16
2023-02-19T15:17:04.232Z,10.13
2023-02-19T15:19:36.209Z,10.09
2023-02-19T15:22:04.504Z,10.07
2023-02-19T15:24:32.347Z,10.05
2023-02-19T15:27:00.388Z,10.03
2023-02-19T15:30:28.020Z,10.00
2023-02-19T15:33:39.942Z,9.99
2023-02-19T15:36:44.844Z,9.97
2023-02-19T15:39:53.335Z,9.97
2023-02-19T15:43:10.264Z,9.92
2023-02-19T15:45:47.417Z,9.81
2023-02-19T15:48:21.941Z,9.57
2023-02-19T15:50:57.837Z,9.28
2023-02-19T15:53:37.669Z,8.94
2023-02-19T15:56:45.757Z,8.58
2023-02-19T15:59:33.375Z,8.23
2023-02-19T16:02:03.484Z,7.97
2023-02-19T16:04:34.411Z,7.77
2023-02-19T16:07:05.868Z,7.60
2023-02-19T16:09:37.097Z,7.52
2023-02-19T16:12:21.235Z,7.46
2023-02-19T16:14:49.374Z,7.39
2023-02-19T16:17:27.833Z,7.30
2023-02-19T16:19:58.918Z,7.25
2023-02-19T16:22:34.130Z,7.21
2023-02-19T16:25:05.998Z,7.17
2023-02-19T16:27:37.697Z,7.11
2023-02-19T16:30:26.546Z,7.02
2023-02-19T16:33:26.390Z,6.89
2023-02-19T16:35:56.620Z,6.78
2023-02-19T16:38:25.118Z,6.69
2023-02-19T16:41:18.869Z,6.64
2023-02-19T16:48:45.842Z,6.58
2023-02-19T16:52:11.823Z,6.60
2023-02-19T17:03:24.801Z,6.61
2023-02-19T17:10:32.868Z,6.71
2023-02-19T17:17:54.823Z,6.72
2023-02-19T17:22:07.829Z,6.71
2023-02-19T17:25:43.835Z,6.71
2023-02-19T17:29:17.790Z,6.72
2023-02-19T17:47:21.828Z,7.04
2023-02-19T17:59:37.837Z,7.07
2023-02-19T18:07:25.610Z,7.20
2023-02-19T18:15:23.719Z,7.24
2023-02-19T18:19:01.870Z,7.36
2023-02-19T18:22:48.826Z,7.35
2023-02-19T18:26:21.825Z,7.31
2023-02-19T18:30:09.875Z,7.27
2023-02-19T18:33:30.836Z,7.32
2023-02-19T18:37:04.823Z,7.45
2023-02-19T18:41:01.834Z,7.46
2023-02-19T18:44:56.839Z,7.37
2023-02-19T18:48:58.183Z,6.92
2023-02-19T18:52:29.880Z,6.57
2023-02-19T18:56:13.630Z,6.33
2023-02-19T19:00:06.995Z,6.13
2023-02-19T19:03:48.862Z,5.59
2023-02-19T19:11:38.791Z,4.81
2023-02-19T19:18:51.862Z,4.33
2023-02-19T19:22:39.939Z,4.24
2023-02-19T19:26:12.154Z,4.01
2023-02-19T19:30:02.824Z,3.97
2023-02-19T19:37:12.878Z,3.88
2023-02-19T19:40:41.964Z,3.89
2023-02-19T19:48:14.820Z,3.85
2023-02-19T20:07:24.868Z,3.96
2023-02-19T20:10:55.786Z,4.02
2023-02-19T20:18:15.770Z,4.09
2023-02-19T20:21:51.831Z,4.06
2023-02-19T20:41:30.834Z,3.68
2023-02-19T20:47:54.837Z,3.72
2023-02-19T20:51:32.838Z,3.73
2023-02-19T20:55:10.766Z,3.71
2023-02-19T21:03:10.653Z,3.63
2023-02-19T21:06:48.832Z,3.60
2023-02-19T21:17:32.917Z,3.62
2023-02-19T21:21:11.775Z,3.66
2023-02-19T21:24:40.841Z,3.73
2023-02-19T21:39:06.936Z,3.55
2023-02-19T21:41:42.331Z,3.42
2023-02-19T21:44:10.283Z,3.27
2023-02-19T21:46:38.766Z,3.19
2023-02-19T21:49:11.692Z,3.08
2023-02-19T21:51:43.169Z,2.99
2023-02-19T21:54:18.195Z,2.96
2023-02-19T21:56:47.094Z,2.95
2023-02-19T21:59:15.305Z,2.92
2023-02-19T22:01:43.859Z,2.86
2023-02-19T22:04:24.509Z,2.71
2023-02-19T22:06:56.287Z,2.66
2023-02-19T22:09:24.815Z,2.50
2023-02-19T22:11:52.800Z,2.33
2023-02-19T22:14:21.146Z,2.22
2023-02-19T22:16:49.797Z,2.15
2023-02-19T22:19:18.886Z,2.09
2023-02-19T22:21:47.498Z,2.01
2023-02-19T22:24:24.376Z,1.95
2023-02-19T22:26:56.760Z,1.93
2023-02-19T22:29:25.268Z,1.92
2023-02-19T22:31:59.824Z,1.91
2023-02-19T22:34:27.836Z,1.92
2023-02-19T22:36:55.955Z,1.91
2023-02-19T22:39:27.123Z,1.90
2023-02-19T22:41:58.451Z,1.84
2023-02-19T22:44:26.364Z,1.81
2023-02-19T22:46:56.109Z,1.75
2023-02-19T22:49:24.139Z,1.70
2023-02-19T22:52:00.636Z,1.64
2023-02-19T22:54:29.037Z,1.60
2023-02-19T22:56:57.837Z,1.59
2023-02-19T22:59:27.680Z,1.56
2023-02-19T23:01:56.125Z,1.54
2023-02-19T23:04:25.690Z,1.46
2023-02-19T23:06:53.789Z,1.38
2023-02-19T23:09:25.439Z,1.32
2023-02-19T23:12:00.802Z,1.24
2023-02-19T23:14:36.056Z,1.19
2023-02-19T23:17:05.316Z,1.12
2023-02-19T23:19:33.644Z,1.09
2023-02-19T23:22:01.725Z,1.09
2023-02-19T23:24:29.738Z,1.07
2023-02-19T23:26:59.575Z,1.04
2023-02-19T23:29:30.687Z,1.03
2023-02-19T23:32:00.531Z,1.01
2023-02-19T23:34:29.310Z,1.01
2023-02-19T23:36:59.620Z,1.02
2023-02-19T23:39:58.750Z,0.98
2023-02-19T23:43:24.189Z,0.94
2023-02-19T23:46:47.790Z,0.89
2023-02-19T23:50:05.826Z,0.76
2023-02-19T23:53:22.769Z,0.67
2023-02-19T23:56:49.828Z,0.57
